Time;durP1;ratioP1;P1;durP2;ratioP2;P2;SDS_P1;SDS_P2;PMS_P1;PMS_P2;Temp;Humidity;BMP_temperature;BMP_pressure;BME280_temperature;BME280_humidity;BME280_pressure;Samples;Min_cycle;Max_cycle;Signal;HPM_P1;HPM_P2
2022/10/09 00:01:19;;;;;;;;;;;;;;;;;;7365993;19;1852;-49
2022/10/09 00:03:48;;;;;;;;;;;;;;;;;;7367195;19;1767;-46
2022/10/09 00:06:16;;;;;;;;;;;;;;;;;;7368969;19;1746;-48
2022/10/09 00:08:44;;;;;;;;;;;;;;;;;;7366738;19;1780;-50
2022/10/09 00:11:12;;;;;;;;;;;;;;;;;;7367290;19;1782;-47
2022/10/09 00:13:40;;;;;;;;;;;;;;;;;;7366001;19;1940;-46
2022/10/09 00:16:09;;;;;;;;;;;;;;;;;;7364865;19;1834;-49
2022/10/09 00:18:37;;;;;;;;;;;;;;;;;;7365025;19;1822;-46
2022/10/09 00:21:05;;;;;;;;;;;;;;;;;;7365528;19;1703;-47
2022/10/09 00:23:33;;;;;;;;;;;;;;;;;;7362562;19;1851;-48
2022/10/09 00:26:01;;;;;;;;;;;;;;;;;;7365075;19;1802;-51
2022/10/09 00:28:29;;;;;;;;;;;;;;;;;;7365479;19;1796;-52
2022/10/09 00:30:58;;;;;;;;;;;;;;;;;;7367081;19;1806;-47
2022/10/09 00:33:26;;;;;;;;;;;;;;;;;;7365454;19;1797;-50
2022/10/09 00:35:54;;;;;;;;;;;;;;;;;;7368188;19;1804;-48
2022/10/09 00:38:22;;;;;;;;;;;;;;;;;;7363182;19;855;-51
2022/10/09 00:40:50;;;;;;;;;;;;;;;;;;7366283;19;1540;-46
2022/10/09 00:43:18;;;;;;;;;;;;;;;;;;7361521;19;1865;-50
2022/10/09 00:45:46;;;;;;;;;;;;;;;;;;7363845;19;903;-46
2022/10/09 00:48:14;;;;;;;;;;;;;;;;;;7362898;19;866;-52
2022/10/09 00:50:42;;;;;;;;;;;;;;;;;;7364010;19;870;-46
2022/10/09 00:53:10;;;;;;;;;;;;;;;;;;7365271;19;1551;-46
2022/10/09 00:55:39;;;;;;;;;;;;;;;;;;7363431;19;834;-48
2022/10/09 00:58:07;;;;;;;;;;;;;;;;;;7369105;19;811;-47
2022/10/09 01:00:35;;;;;;;;;;;;;;;;;;7370505;19;850;-46
2022/10/09 01:03:03;;;;;;;;;;;;;;;;;;7368086;19;1863;-45
2022/10/09 01:05:31;;;;;;;;;;;;;;;;;;7369737;19;857;-47
2022/10/09 01:07:59;;;;;;;;;;;;;;;;;;7371911;19;1799;-47
2022/10/09 01:10:27;;;;;;;;;;;;;;;;;;7374098;19;1868;-51
2022/10/09 01:12:55;;;;;;;;;;;;;;;;;;7368824;19;1239;-46
2022/10/09 01:15:24;;;;;;;;;;;;;;;;;;7369939;19;1823;-49
2022/10/09 01:17:52;;;;;;;;;;;;;;;;;;7368565;19;798;-49
2022/10/09 01:20:20;;;;;;;;;;;;;;;;;;7369859;19;2051;-47
2022/10/09 01:22:48;;;;;;;;;;;;;;;;;;7370288;19;1842;-51
2022/10/09 01:25:16;;;;;;;;;;;;;;;;;;7369948;19;2071;-48
2022/10/09 01:27:44;;;;;;;;;;;;;;;;;;7370609;19;1777;-51
2022/10/09 01:30:12;;;;;;;;;;;;;;;;;;7370031;19;1426;-52
2022/10/09 01:32:41;;;;;;;;;;;;;;;;;;7371457;19;2046;-50
2022/10/09 01:35:09;;;;;;;;;;;;;;;;;;7371831;19;1807;-46
2022/10/09 01:37:37;;;;;;;;;;;;;;;;;;7370126;19;1801;-46
2022/10/09 01:40:05;;;;;;;;;;;;;;;;;;7372458;19;1829;-46
2022/10/09 01:42:33;;;;;;;;;;;;;;;;;;7370940;19;1869;-49
2022/10/09 01:45:01;;;;;;;;;;;;;;;;;;7372700;19;1719;-50
2022/10/09 01:47:29;;;;;;;;;;;;;;;;;;7371904;19;1563;-48
2022/10/09 01:49:58;;;;;;;;;;;;;;;;;;7368497;19;794;-49
2022/10/09 01:52:26;;;;;;;;;;;;;;;;;;7371308;19;1796;-48
2022/10/09 01:54:54;;;;;;;;;;;;;;;;;;7368744;19;944;-48
2022/10/09 01:57:22;;;;;;;;;;;;;;;;;;7372088;19;1807;-46
2022/10/09 01:59:50;;;;;;;;;;;;;;;;;;7372514;19;1785;-47
2022/10/09 02:02:18;;;;;;;;;;;;;;;;;;7370928;19;1867;-47
2022/10/09 02:04:46;;;;;;;;;;;;;;;;;;7369065;19;874;-46
2022/10/09 02:07:15;;;;;;;;;;;;;;;;;;7370451;19;1563;-48
2022/10/09 02:09:43;;;;;;;;;;;;;;;;;;7368422;19;1753;-49
2022/10/09 02:12:11;;;;;;;;;;;;;;;;;;7368308;19;1760;-48
2022/10/09 02:14:40;;;;;;;;;;;;;;;;;;7363316;19;1797;-48
2022/10/09 02:17:08;;;;;;;;;;;;;;;;;;7367802;19;1652;-51
2022/10/09 02:19:36;;;;;;;;;;;;;;;;;;7371478;19;1923;-50
2022/10/09 02:22:04;;;;;;;;;;;;;;;;;;7369478;19;1850;-52
2022/10/09 02:24:32;;;;;;;;;;;;;;;;;;7364470;19;1200;-50
2022/10/09 02:27:00;;;;;;;;;;;;;;;;;;7369334;19;1803;-47
2022/10/09 02:29:28;;;;;;;;;;;;;;;;;;7367409;19;1847;-48
2022/10/09 02:31:57;;;;;;;;;;;;;;;;;;7369312;19;1819;-47
2022/10/09 02:34:25;;;;;;;;;;;;;;;;;;7367868;19;1648;-50
2022/10/09 02:36:53;;;;;;;;;;;;;;;;;;7366578;19;928;-49
2022/10/09 02:39:21;;;;;;;;;;;;;;;;;;7366647;19;783;-48
2022/10/09 02:41:49;;;;;;;;;;;;;;;;;;7368150;19;752;-48
2022/10/09 02:44:17;;;;;;;;;;;;;;;;;;7364097;19;1834;-47
2022/10/09 02:46:45;;;;;;;;;;;;;;;;;;7368836;19;1796;-47
2022/10/09 02:49:13;;;;;;;;;;;;;;;;;;7368898;19;1843;-49
2022/10/09 02:51:42;;;;;;;;;;;;;;;;;;7368521;19;1846;-48
2022/10/09 02:54:10;;;;;;;;;;;;;;;;;;7368342;19;1815;-47
2022/10/09 02:56:38;;;;;;;;;;;;;;;;;;7372261;19;2236;-53
2022/10/09 02:59:06;;;;;;;;;;;;;;;;;;7368808;19;2088;-52
2022/10/09 03:01:34;;;;;;;;;;;;;;;;;;7369587;19;2078;-48
2022/10/09 03:04:02;;;;;;;;;;;;;;;;;;7365913;19;1856;-49
2022/10/09 03:06:30;;;;;;;;;;;;;;;;;;7367837;19;1681;-49
2022/10/09 03:08:58;;;;;;;;;;;;;;;;;;7366497;19;719;-48
2022/10/09 03:11:26;;;;;;;;;;;;;;;;;;7369172;19;1797;-50
2022/10/09 03:13:55;;;;;;;;;;;;;;;;;;7369198;19;1570;-49
2022/10/09 03:16:23;;;;;;;;;;;;;;;;;;7367991;19;1880;-51
2022/10/09 03:18:52;;;;;;;;;;;;;;;;;;7364816;19;1828;-48
2022/10/09 03:21:20;;;;;;;;;;;;;;;;;;7369630;19;1896;-51
2022/10/09 03:23:48;;;;;;;;;;;;;;;;;;7363957;19;1872;-51
2022/10/09 03:26:16;;;;;;;;;;;;;;;;;;7368058;19;1665;-50
2022/10/09 03:28:45;;;;;;;;;;;;;;;;;;7367247;19;1769;-50
2022/10/09 03:31:13;;;;;;;;;;;;;;;;;;7368552;19;1558;-49
2022/10/09 03:33:41;;;;;;;;;;;;;;;;;;7366035;19;1322;-50
2022/10/09 03:36:10;;;;;;;;;;;;;;;;;;7370664;19;1823;-49
2022/10/09 03:38:38;;;;;;;;;;;;;;;;;;7369614;19;1794;-48
2022/10/09 03:41:06;;;;;;;;;;;;;;;;;;7369510;19;1800;-48
2022/10/09 03:43:34;;;;;;;;;;;;;;;;;;7366969;19;1846;-47
2022/10/09 03:46:02;;;;;;;;;;;;;;;;;;7366481;19;1805;-47
2022/10/09 03:48:30;;;;;;;;;;;;;;;;;;7365515;19;810;-47
2022/10/09 03:50:58;;;;;;;;;;;;;;;;;;7366107;19;1857;-49
2022/10/09 03:53:27;;;;;;;;;;;;;;;;;;7364253;19;1306;-48
2022/10/09 03:55:55;;;;;;;;;;;;;;;;;;7368312;19;2087;-50
2022/10/09 03:58:23;;;;;;;;;;;;;;;;;;7368635;19;1791;-49
2022/10/09 04:00:51;;;;;;;;;;;;;;;;;;7366930;19;1484;-49
2022/10/09 04:03:19;;;;;;;;;;;;;;;;;;7364232;19;1853;-50
2022/10/09 04:05:47;;;;;;;;;;;;;;;;;;7365021;19;1848;-51
2022/10/09 04:08:15;;;;;;;;;;;;;;;;;;7368172;19;1815;-48
2022/10/09 04:10:43;;;;;;;;;;;;;;;;;;7368595;19;2056;-49
2022/10/09 04:13:12;;;;;;;;;;;;;;;;;;7369004;19;2098;-51
2022/10/09 04:15:40;;;;;;;;;;;;;;;;;;7368515;19;1976;-51
2022/10/09 04:18:08;;;;;;;;;;;;;;;;;;7364354;19;819;-49
2022/10/09 04:20:36;;;;;;;;;;;;;;;;;;7365151;19;1820;-48
2022/10/09 04:23:04;;;;;;;;;;;;;;;;;;7367824;19;2251;-48
2022/10/09 04:25:32;;;;;;;;;;;;;;;;;;7365160;19;1647;-48
2022/10/09 04:28:00;;;;;;;;;;;;;;;;;;7365571;19;1780;-48
2022/10/09 04:30:28;;;;;;;;;;;;;;;;;;7366992;19;1755;-48
2022/10/09 04:32:57;;;;;;;;;;;;;;;;;;7373926;19;1657;-48
2022/10/09 04:35:25;;;;;;;;;;;;;;;;;;7374376;19;1865;-49
2022/10/09 04:37:53;;;;;;;;;;;;;;;;;;7371038;19;1765;-49
2022/10/09 04:40:21;;;;;;;;;;;;;;;;;;7371807;19;1782;-51
2022/10/09 04:42:49;;;;;;;;;;;;;;;;;;7372220;19;1846;-52
2022/10/09 04:45:17;;;;;;;;;;;;;;;;;;7373307;19;1762;-48
2022/10/09 04:47:45;;;;;;;;;;;;;;;;;;7373244;19;1770;-48
2022/10/09 04:50:14;;;;;;;;;;;;;;;;;;7370358;19;970;-48
2022/10/09 04:52:58;;;;;;;;;;;;;;;;;;7374226;19;1663;-49
2022/10/09 04:55:26;;;;;;;;;;;;;;;;;;7373839;19;1793;-50
2022/10/09 04:57:54;;;;;;;;;;;;;;;;;;7373297;19;1990;-49
2022/10/09 05:00:22;;;;;;;;;;;;;;;;;;7370189;19;1965;-52
2022/10/09 05:02:50;;;;;;;;;;;;;;;;;;7373517;19;2202;-51
2022/10/09 05:05:19;;;;;;;;;;;;;;;;;;7369848;19;1790;-50
2022/10/09 05:07:47;;;;;;;;;;;;;;;;;;7373412;19;1808;-51
2022/10/09 05:10:15;;;;;;;;;;;;;;;;;;7374311;19;1559;-52
2022/10/09 05:12:43;;;;;;;;;;;;;;;;;;7373773;19;1746;-51
2022/10/09 05:15:12;;;;;;;;;;;;;;;;;;7369481;19;823;-51
2022/10/09 05:17:40;;;;;;;;;;;;;;;;;;7372830;19;1515;-50
2022/10/09 05:20:08;;;;;;;;;;;;;;;;;;7373587;19;1632;-52
2022/10/09 05:22:36;;;;;;;;;;;;;;;;;;7373015;19;1780;-52
2022/10/09 05:25:04;;;;;;;;;;;;;;;;;;7367220;19;1899;-51
2022/10/09 05:27:32;;;;;;;;;;;;;;;;;;7373389;19;1835;-53
2022/10/09 05:30:00;;;;;;;;;;;;;;;;;;7369318;19;855;-52
2022/10/09 05:32:28;;;;;;;;;;;;;;;;;;7372342;19;1827;-48
2022/10/09 05:34:57;;;;;;;;;;;;;;;;;;7370215;19;739;-48
2022/10/09 05:37:25;;;;;;;;;;;;;;;;;;7372898;19;1655;-51
2022/10/09 05:39:53;;;;;;;;;;;;;;;;;;7370681;19;1746;-52
2022/10/09 05:42:21;;;;;;;;;;;;;;;;;;7371479;19;1765;-49
2022/10/09 05:44:49;;;;;;;;;;;;;;;;;;7371590;19;1872;-49
2022/10/09 05:47:18;;;;;;;;;;;;;;;;;;7372143;19;1792;-48
2022/10/09 05:49:46;;;;;;;;;;;;;;;;;;7371997;19;2035;-51
2022/10/09 05:52:14;;;;;;;;;;;;;;;;;;7371714;19;1662;-51
2022/10/09 05:54:43;;;;;;;;;;;;;;;;;;7369424;19;1831;-50
2022/10/09 05:57:11;;;;;;;;;;;;;;;;;;7371511;19;2035;-50
2022/10/09 05:59:39;;;;;;;;;;;;;;;;;;7369741;19;1822;-48
2022/10/09 06:02:07;;;;;;;;;;;;;;;;;;7370563;19;1750;-49
2022/10/09 06:04:35;;;;;;;;;;;;;;;;;;7366274;19;1859;-52
2022/10/09 06:07:03;;;;;;;;;;;;;;;;;;7373156;19;1893;-55
2022/10/09 06:09:32;;;;;;;;;;;;;;;;;;7367810;19;862;-49
2022/10/09 06:12:00;;;;;;;;;;;;;;;;;;7372801;19;1788;-50
2022/10/09 06:14:28;;;;;;;;;;;;;;;;;;7366081;19;1266;-50
2022/10/09 06:16:56;;;;;;;;;;;;;;;;;;7371736;19;1771;-49
2022/10/09 06:19:24;;;;;;;;;;;;;;;;;;7368577;19;1822;-49
2022/10/09 06:21:52;;;;;;;;;;;;;;;;;;7370739;19;1778;-50
2022/10/09 06:24:20;;;;;;;;;;;;;;;;;;7367707;19;1904;-49
2022/10/09 06:26:49;;;;;;;;;;;;;;;;;;7369750;19;1698;-51
2022/10/09 06:29:17;;;;;;;;;;;;;;;;;;7366573;19;841;-48
2022/10/09 06:31:45;;;;;;;;;;;;;;;;;;7367955;19;799;-52
2022/10/09 06:34:13;;;;;;;;;;;;;;;;;;7365014;19;1835;-52
2022/10/09 06:36:41;;;;;;;;;;;;;;;;;;7367041;19;676;-49
2022/10/09 06:39:09;;;;;;;;;;;;;;;;;;7364999;19;838;-47
2022/10/09 06:41:37;;;;;;;;;;;;;;;;;;7365533;19;812;-51
2022/10/09 06:44:24;;;;;;;;;;;;;;;;;;7363859;19;1850;-47
2022/10/09 06:46:52;;;;;;;;;;;;;;;;;;7367572;19;819;-48
2022/10/09 06:49:20;;;;;;;;;;;;;;;;;;7366547;19;812;-51
2022/10/09 06:51:48;;;;;;;;;;;;;;;;;;7367019;19;786;-52
2022/10/09 06:54:16;;;;;;;;;;;;;;;;;;7362833;19;1314;-47
2022/10/09 06:56:44;;;;;;;;;;;;;;;;;;7366790;19;817;-51
2022/10/09 06:59:12;;;;;;;;;;;;;;;;;;7364410;19;803;-46
2022/10/09 07:01:41;;;;;;;;;;;;;;;;;;7366988;19;811;-50
2022/10/09 07:04:09;;;;;;;;;;;;;;;;;;7364575;19;1861;-49
2022/10/09 07:06:37;;;;;;;;;;;;;;;;;;7366904;19;864;-50
2022/10/09 07:09:05;;;;;;;;;;;;;;;;;;7365866;19;824;-52
2022/10/09 07:11:33;;;;;;;;;;;;;;;;;;7367316;19;803;-48
2022/10/09 07:14:01;;;;;;;;;;;;;;;;;;7365286;19;1240;-48
2022/10/09 07:16:29;;;;;;;;;;;;;;;;;;7366744;19;812;-50
2022/10/09 07:18:59;;;;;;;;;;;;;;;;;;7365652;19;799;-49
2022/10/09 07:21:28;;;;;;;;;;;;;;;;;;7365922;19;762;-49
2022/10/09 07:23:56;;;;;;;;;;;;;;;;;;7363957;19;1853;-48
2022/10/09 07:26:24;;;;;;;;;;;;;;;;;;7365694;19;808;-46
2022/10/09 07:28:52;;;;;;;;;;;;;;;;;;7365315;19;843;-47
2022/10/09 07:31:21;;;;;;;;;;;;;;;;;;7366195;19;862;-53
2022/10/09 07:33:49;;;;;;;;;;;;;;;;;;7364215;19;1328;-52
2022/10/09 07:36:18;;;;;;;;;;;;;;;;;;7366265;19;862;-49
2022/10/09 07:38:46;;;;;;;;;;;;;;;;;;7365172;19;824;-48
2022/10/09 07:41:14;;;;;;;;;;;;;;;;;;7365838;19;859;-48
2022/10/09 07:43:42;;;;;;;;;;;;;;;;;;7364739;19;1856;-50
2022/10/09 07:46:10;;;;;;;;;;;;;;;;;;7365357;19;804;-48
2022/10/09 07:48:38;;;;;;;;;;;;;;;;;;7365146;19;803;-48
2022/10/09 07:51:06;;;;;;;;;;;;;;;;;;7365748;19;772;-53
2022/10/09 07:53:34;;;;;;;;;;;;;;;;;;7363894;19;1244;-49
2022/10/09 07:56:03;;;;;;;;;;;;;;;;;;7365359;19;766;-50
2022/10/09 07:58:31;;;;;;;;;;;;;;;;;;7363791;19;822;-51
2022/10/09 08:00:59;;;;;;;;;;;;;;;;;;7365099;19;851;-52
2022/10/09 08:03:27;;;;;;;;;;;;;;;;;;7363614;19;1293;-49
2022/10/09 08:05:55;;;;;;;;;;;;;;;;;;7365979;19;1837;-50
2022/10/09 08:08:23;;;;;;;;;;;;;;;;;;7368739;19;803;-48
2022/10/09 08:10:51;;;;;;;;;;;;;;;;;;7371427;19;822;-48
2022/10/09 08:13:20;;;;;;;;;;;;;;;;;;7371051;19;1330;-46
2022/10/09 08:15:48;;;;;;;;;;;;;;;;;;7370946;19;822;-46
2022/10/09 08:18:16;;;;;;;;;;;;;;;;;;7369918;19;775;-47
2022/10/09 08:20:44;;;;;;;;;;;;;;;;;;7370332;19;858;-49
2022/10/09 08:23:12;;;;;;;;;;;;;;;;;;7370639;19;1267;-49
2022/10/09 08:25:40;;;;;;;;;;;;;;;;;;7369723;19;1853;-50
2022/10/09 08:28:08;;;;;;;;;;;;;;;;;;7370592;19;869;-51
2022/10/09 08:30:36;;;;;;;;;;;;;;;;;;7370741;19;776;-52
2022/10/09 08:33:04;;;;;;;;;;;;;;;;;;7370111;19;1306;-52
2022/10/09 08:35:33;;;;;;;;;;;;;;;;;;7370708;19;835;-50
2022/10/09 08:38:01;;;;;;;;;;;;;;;;;;7370518;19;858;-49
2022/10/09 08:40:29;;;;;;;;;;;;;;;;;;7371347;19;862;-48
2022/10/09 08:42:57;;;;;;;;;;;;;;;;;;7370461;19;1275;-50
2022/10/09 08:45:26;;;;;;;;;;;;;;;;;;7369021;19;1847;-47
2022/10/09 08:47:55;;;;;;;;;;;;;;;;;;7370388;19;937;-50
2022/10/09 08:50:23;;;;;;;;;;;;;;;;;;7370810;19;795;-46
2022/10/09 08:52:52;;;;;;;;;;;;;;;;;;7370287;19;1291;-50
2022/10/09 08:55:20;;;;;;;;;;;;;;;;;;7370334;19;733;-50
2022/10/09 08:57:48;;;;;;;;;;;;;;;;;;7369879;19;783;-48
2022/10/09 09:00:16;;;;;;;;;;;;;;;;;;7370220;19;812;-49
2022/10/09 09:02:44;;;;;;;;;;;;;;;;;;7370221;19;1357;-47
2022/10/09 09:05:12;;;;;;;;;;;;;;;;;;7369873;19;1867;-48
2022/10/09 09:07:40;;;;;;;;;;;;;;;;;;7370176;19;766;-46
2022/10/09 09:10:08;;;;;;;;;;;;;;;;;;7371006;19;808;-48
2022/10/09 09:12:36;;;;;;;;;;;;;;;;;;7369838;19;1342;-50
2022/10/09 09:15:05;;;;;;;;;;;;;;;;;;7370556;19;768;-51
2022/10/09 09:17:33;;;;;;;;;;;;;;;;;;7368422;19;816;-48
2022/10/09 09:20:01;;;;;;;;;;;;;;;;;;7370173;19;879;-50
2022/10/09 09:22:30;;;;;;;;;;;;;;;;;;7370314;19;1353;-47
2022/10/09 09:24:58;;;;;;;;;;;;;;;;;;7369276;19;1853;-46
2022/10/09 09:27:26;;;;;;;;;;;;;;;;;;7369736;19;1008;-50
2022/10/09 09:29:55;;;;;;;;;;;;;;;;;;7368743;19;774;-46
2022/10/09 09:32:23;;;;;;;;;;;;;;;;;;7369608;19;792;-47
2022/10/09 09:34:51;;;;;;;;;;;;;;;;;;7369370;19;730;-47
2022/10/09 09:37:19;;;;;;;;;;;;;;;;;;7369334;19;835;-47
2022/10/09 09:39:47;;;;;;;;;;;;;;;;;;7368724;19;857;-47
2022/10/09 09:42:15;;;;;;;;;;;;;;;;;;7369109;19;874;-47
2022/10/09 09:44:44;;;;;;;;;;;;;;;;;;7366637;19;1850;-48
2022/10/09 09:47:12;;;;;;;;;;;;;;;;;;7369953;19;851;-48
2022/10/09 09:49:40;;;;;;;;;;;;;;;;;;7368524;19;831;-47
2022/10/09 09:52:08;;;;;;;;;;;;;;;;;;7368650;19;838;-50
2022/10/09 09:54:38;;;;;;;;;;;;;;;;;;7366877;19;1341;-48
2022/10/09 09:57:06;;;;;;;;;;;;;;;;;;7370064;19;892;-45
2022/10/09 09:59:34;;;;;;;;;;;;;;;;;;7368556;19;793;-46
2022/10/09 10:02:02;;;;;;;;;;;;;;;;;;7369735;19;844;-46
2022/10/09 10:04:30;;;;;;;;;;;;;;;;;;7366593;19;1830;-47
2022/10/09 10:06:58;;;;;;;;;;;;;;;;;;7369137;19;879;-45
2022/10/09 10:09:26;;;;;;;;;;;;;;;;;;7368606;19;866;-51
2022/10/09 10:11:55;;;;;;;;;;;;;;;;;;7369280;19;823;-45
2022/10/09 10:14:23;;;;;;;;;;;;;;;;;;7366920;19;1236;-46
2022/10/09 10:16:51;;;;;;;;;;;;;;;;;;7369654;19;835;-48
2022/10/09 10:19:19;;;;;;;;;;;;;;;;;;7371340;19;807;-46
2022/10/09 10:21:47;;;;;;;;;;;;;;;;;;7374972;19;823;-48
2022/10/09 10:24:15;;;;;;;;;;;;;;;;;;7373656;19;1235;-47
2022/10/09 10:26:43;;;;;;;;;;;;;;;;;;7376593;19;812;-47
2022/10/09 10:29:11;;;;;;;;;;;;;;;;;;7371603;19;840;-47
2022/10/09 10:31:40;;;;;;;;;;;;;;;;;;7371601;19;846;-47
2022/10/09 10:34:08;;;;;;;;;;;;;;;;;;7367914;19;1342;-48
2022/10/09 10:36:36;;;;;;;;;;;;;;;;;;7370230;19;823;-46
2022/10/09 10:39:04;;;;;;;;;;;;;;;;;;7368445;19;807;-47
2022/10/09 10:41:32;;;;;;;;;;;;;;;;;;7368931;19;847;-47
2022/10/09 10:44:00;;;;;;;;;;;;;;;;;;7366450;19;1295;-48
2022/10/09 10:46:29;;;;;;;;;;;;;;;;;;7365160;19;1841;-48
2022/10/09 10:48:57;;;;;;;;;;;;;;;;;;7366971;19;861;-48
2022/10/09 10:51:25;;;;;;;;;;;;;;;;;;7367928;19;1081;-47
2022/10/09 10:53:53;;;;;;;;;;;;;;;;;;7365442;19;1275;-48
2022/10/09 10:56:21;;;;;;;;;;;;;;;;;;7367486;19;772;-48
2022/10/09 10:58:49;;;;;;;;;;;;;;;;;;7366498;19;850;-48
2022/10/09 11:01:17;;;;;;;;;;;;;;;;;;7367639;19;802;-47
2022/10/09 11:03:46;;;;;;;;;;;;;;;;;;7365383;19;1265;-51
2022/10/09 11:06:14;;;;;;;;;;;;;;;;;;7364864;19;1841;-48
2022/10/09 11:08:42;;;;;;;;;;;;;;;;;;7366372;19;879;-47
2022/10/09 11:11:10;;;;;;;;;;;;;;;;;;7366775;19;846;-49
2022/10/09 11:13:38;;;;;;;;;;;;;;;;;;7365290;19;1286;-48
2022/10/09 11:16:06;;;;;;;;;;;;;;;;;;7367490;19;864;-47
2022/10/09 11:18:34;;;;;;;;;;;;;;;;;;7366489;19;887;-49
2022/10/09 11:21:02;;;;;;;;;;;;;;;;;;7367062;19;816;-49
2022/10/09 11:23:31;;;;;;;;;;;;;;;;;;7365358;19;1346;-48
2022/10/09 11:25:59;;;;;;;;;;;;;;;;;;7364692;19;1831;-48
2022/10/09 11:28:27;;;;;;;;;;;;;;;;;;7366346;19;882;-49
2022/10/09 11:30:55;;;;;;;;;;;;;;;;;;7367189;19;862;-48
2022/10/09 11:33:23;;;;;;;;;;;;;;;;;;7365572;19;1283;-49
2022/10/09 11:35:51;;;;;;;;;;;;;;;;;;7367640;19;862;-50
2022/10/09 11:38:19;;;;;;;;;;;;;;;;;;7366420;19;831;-49
2022/10/09 11:40:47;;;;;;;;;;;;;;;;;;7365693;19;808;-50
2022/10/09 11:43:15;;;;;;;;;;;;;;;;;;7364992;19;1317;-48
2022/10/09 11:45:44;;;;;;;;;;;;;;;;;;7364155;19;1838;-47
2022/10/09 11:48:12;;;;;;;;;;;;;;;;;;7365573;19;879;-49
2022/10/09 11:50:43;;;;;;;;;;;;;;;;;;7363363;19;1098;-49
2022/10/09 11:53:11;;;;;;;;;;;;;;;;;;7364718;19;1267;-48
2022/10/09 11:55:39;;;;;;;;;;;;;;;;;;7365807;19;859;-48
2022/10/09 11:58:07;;;;;;;;;;;;;;;;;;7364883;19;770;-47
2022/10/09 12:00:36;;;;;;;;;;;;;;;;;;7365274;19;796;-47
2022/10/09 12:03:04;;;;;;;;;;;;;;;;;;7364214;19;1341;-46
2022/10/09 12:05:32;;;;;;;;;;;;;;;;;;7364627;19;1853;-50
2022/10/09 12:08:00;;;;;;;;;;;;;;;;;;7365582;19;847;-47
2022/10/09 12:10:28;;;;;;;;;;;;;;;;;;7366333;19;816;-47
2022/10/09 12:12:56;;;;;;;;;;;;;;;;;;7364828;19;1353;-47
2022/10/09 12:15:24;;;;;;;;;;;;;;;;;;7367264;19;802;-49
2022/10/09 12:17:53;;;;;;;;;;;;;;;;;;7366138;19;828;-47
2022/10/09 12:20:21;;;;;;;;;;;;;;;;;;7367590;19;842;-47
2022/10/09 12:22:49;;;;;;;;;;;;;;;;;;7365483;19;1319;-48
2022/10/09 12:25:17;;;;;;;;;;;;;;;;;;7365446;19;1842;-50
2022/10/09 12:27:45;;;;;;;;;;;;;;;;;;7365347;19;819;-47
2022/10/09 12:30:13;;;;;;;;;;;;;;;;;;7365493;19;734;-45
2022/10/09 12:32:42;;;;;;;;;;;;;;;;;;7364941;19;1282;-45
2022/10/09 12:35:10;;;;;;;;;;;;;;;;;;7365674;19;807;-45
2022/10/09 12:37:38;;;;;;;;;;;;;;;;;;7365018;19;823;-45
2022/10/09 12:40:06;;;;;;;;;;;;;;;;;;7365245;19;807;-46
2022/10/09 12:42:34;;;;;;;;;;;;;;;;;;7364605;19;1266;-47
2022/10/09 12:45:02;;;;;;;;;;;;;;;;;;7364398;19;1845;-50
2022/10/09 12:47:30;;;;;;;;;;;;;;;;;;7364615;19;872;-46
2022/10/09 12:49:58;;;;;;;;;;;;;;;;;;7363908;19;767;-51
2022/10/09 12:52:27;;;;;;;;;;;;;;;;;;7366952;19;1423;-51
2022/10/09 12:54:55;;;;;;;;;;;;;;;;;;7370985;19;800;-48
2022/10/09 12:57:23;;;;;;;;;;;;;;;;;;7371279;19;818;-47
2022/10/09 12:59:51;;;;;;;;;;;;;;;;;;7370739;19;883;-47
2022/10/09 13:02:19;;;;;;;;;;;;;;;;;;7371677;19;858;-47
2022/10/09 13:04:47;;;;;;;;;;;;;;;;;;7369903;19;1311;-49
2022/10/09 13:07:15;;;;;;;;;;;;;;;;;;7368577;19;1858;-48
2022/10/09 13:09:43;;;;;;;;;;;;;;;;;;7370003;19;848;-48
2022/10/09 13:12:12;;;;;;;;;;;;;;;;;;7370559;19;893;-49
2022/10/09 13:14:40;;;;;;;;;;;;;;;;;;7369074;19;1334;-48
2022/10/09 13:17:08;;;;;;;;;;;;;;;;;;7370996;19;828;-47
2022/10/09 13:19:36;;;;;;;;;;;;;;;;;;7369804;19;874;-47
2022/10/09 13:22:04;;;;;;;;;;;;;;;;;;7370212;19;832;-48
2022/10/09 13:24:32;;;;;;;;;;;;;;;;;;7368528;19;1314;-49
2022/10/09 13:27:00;;;;;;;;;;;;;;;;;;7368734;19;1849;-50
2022/10/09 13:29:28;;;;;;;;;;;;;;;;;;7369539;19;874;-50
2022/10/09 13:31:57;;;;;;;;;;;;;;;;;;7370195;19;830;-50
2022/10/09 13:34:27;;;;;;;;;;;;;;;;;;7368726;19;1322;-52
2022/10/09 13:36:55;;;;;;;;;;;;;;;;;;7370498;19;733;-51
2022/10/09 13:39:23;;;;;;;;;;;;;;;;;;7369351;19;843;-51
2022/10/09 13:41:54;;;;;;;;;;;;;;;;;;7370099;19;811;-48
2022/10/09 13:44:22;;;;;;;;;;;;;;;;;;7367705;19;1318;-52
2022/10/09 13:46:50;;;;;;;;;;;;;;;;;;7368288;19;1865;-48
2022/10/09 13:49:18;;;;;;;;;;;;;;;;;;7369181;19;887;-48
2022/10/09 13:51:46;;;;;;;;;;;;;;;;;;7369288;19;847;-49
2022/10/09 13:54:14;;;;;;;;;;;;;;;;;;7367613;19;1311;-52
2022/10/09 13:56:43;;;;;;;;;;;;;;;;;;7369763;19;814;-50
2022/10/09 13:59:11;;;;;;;;;;;;;;;;;;7369493;19;810;-52
2022/10/09 14:01:39;;;;;;;;;;;;;;;;;;7369643;19;952;-48
2022/10/09 14:04:07;;;;;;;;;;;;;;;;;;7366858;19;1433;-49
2022/10/09 14:06:35;;;;;;;;;;;;;;;;;;7367524;19;1849;-50
2022/10/09 14:09:03;;;;;;;;;;;;;;;;;;7368264;19;864;-49
2022/10/09 14:11:31;;;;;;;;;;;;;;;;;;7369138;19;882;-49
2022/10/09 14:13:59;;;;;;;;;;;;;;;;;;7367019;19;1353;-52
2022/10/09 14:16:28;;;;;;;;;;;;;;;;;;7369332;19;854;-48
2022/10/09 14:18:56;;;;;;;;;;;;;;;;;;7368003;19;1149;-49
2022/10/09 14:21:24;;;;;;;;;;;;;;;;;;7368967;19;812;-47
2022/10/09 14:23:52;;;;;;;;;;;;;;;;;;7367178;19;1326;-46
2022/10/09 14:26:20;;;;;;;;;;;;;;;;;;7368276;19;1853;-47
2022/10/09 14:28:48;;;;;;;;;;;;;;;;;;7367692;19;875;-47
2022/10/09 14:31:17;;;;;;;;;;;;;;;;;;7368840;19;858;-48
2022/10/09 14:33:45;;;;;;;;;;;;;;;;;;7367724;19;1306;-47
2022/10/09 14:36:13;;;;;;;;;;;;;;;;;;7369122;19;871;-47
2022/10/09 14:38:41;;;;;;;;;;;;;;;;;;7368311;19;840;-49
2022/10/09 14:41:10;;;;;;;;;;;;;;;;;;7369631;19;846;-51
2022/10/09 14:43:38;;;;;;;;;;;;;;;;;;7367169;19;1283;-50
2022/10/09 14:46:07;;;;;;;;;;;;;;;;;;7367406;19;1865;-52
2022/10/09 14:48:35;;;;;;;;;;;;;;;;;;7367712;19;863;-50
2022/10/09 14:51:03;;;;;;;;;;;;;;;;;;7368435;19;728;-54
2022/10/09 14:53:31;;;;;;;;;;;;;;;;;;7366846;19;1328;-51
2022/10/09 14:55:59;;;;;;;;;;;;;;;;;;7368726;19;795;-49
2022/10/09 14:58:27;;;;;;;;;;;;;;;;;;7367219;19;790;-49
2022/10/09 15:00:55;;;;;;;;;;;;;;;;;;7367738;19;817;-49
2022/10/09 15:03:24;;;;;;;;;;;;;;;;;;7366769;19;1364;-51
2022/10/09 15:05:52;;;;;;;;;;;;;;;;;;7367450;19;1833;-53
2022/10/09 15:08:20;;;;;;;;;;;;;;;;;;7366413;19;858;-52
2022/10/09 15:10:48;;;;;;;;;;;;;;;;;;7367494;19;825;-49
2022/10/09 15:13:16;;;;;;;;;;;;;;;;;;7366196;19;1326;-51
2022/10/09 15:15:44;;;;;;;;;;;;;;;;;;7365050;19;785;-50
2022/10/09 15:18:12;;;;;;;;;;;;;;;;;;7366059;19;863;-50
2022/10/09 15:20:40;;;;;;;;;;;;;;;;;;7367045;19;827;-54
2022/10/09 15:23:08;;;;;;;;;;;;;;;;;;7365841;19;1371;-48
2022/10/09 15:25:37;;;;;;;;;;;;;;;;;;7366702;19;772;-51
2022/10/09 15:28:05;;;;;;;;;;;;;;;;;;7363425;19;1846;-51
2022/10/09 15:30:33;;;;;;;;;;;;;;;;;;7367496;19;878;-49
2022/10/09 15:33:01;;;;;;;;;;;;;;;;;;7365966;19;1349;-50
2022/10/09 15:35:30;;;;;;;;;;;;;;;;;;7366042;19;897;-46
2022/10/09 15:37:58;;;;;;;;;;;;;;;;;;7366721;19;808;-49
2022/10/09 15:40:27;;;;;;;;;;;;;;;;;;7367803;19;870;-46
2022/10/09 15:42:55;;;;;;;;;;;;;;;;;;7366319;19;1341;-46
2022/10/09 15:45:23;;;;;;;;;;;;;;;;;;7366838;19;807;-49
2022/10/09 15:47:51;;;;;;;;;;;;;;;;;;7363174;19;1841;-49
2022/10/09 15:50:19;;;;;;;;;;;;;;;;;;7366292;19;882;-48
2022/10/09 15:52:47;;;;;;;;;;;;;;;;;;7366306;19;1331;-51
2022/10/09 15:55:15;;;;;;;;;;;;;;;;;;7366409;19;760;-49
2022/10/09 15:57:43;;;;;;;;;;;;;;;;;;7365200;19;1134;-46
2022/10/09 16:00:12;;;;;;;;;;;;;;;;;;7366018;19;824;-50
2022/10/09 16:02:40;;;;;;;;;;;;;;;;;;7365757;19;1267;-51
2022/10/09 16:05:08;;;;;;;;;;;;;;;;;;7365356;19;816;-47
2022/10/09 16:07:36;;;;;;;;;;;;;;;;;;7363543;19;1856;-49
2022/10/09 16:10:04;;;;;;;;;;;;;;;;;;7365929;19;864;-48
2022/10/09 16:12:32;;;;;;;;;;;;;;;;;;7365692;19;1322;-49
2022/10/09 16:15:01;;;;;;;;;;;;;;;;;;7365928;19;808;-51
2022/10/09 16:17:29;;;;;;;;;;;;;;;;;;7364175;19;852;-48
2022/10/09 16:19:59;;;;;;;;;;;;;;;;;;7364390;19;776;-46
2022/10/09 16:22:27;;;;;;;;;;;;;;;;;;7365069;19;1354;-47
2022/10/09 16:24:55;;;;;;;;;;;;;;;;;;7365084;19;827;-49
2022/10/09 16:27:23;;;;;;;;;;;;;;;;;;7369272;19;1861;-52
2022/10/09 16:29:51;;;;;;;;;;;;;;;;;;7370724;19;793;-49
2022/10/09 16:32:19;;;;;;;;;;;;;;;;;;7370888;19;823;-48
2022/10/09 16:34:47;;;;;;;;;;;;;;;;;;7370278;19;1316;-47
2022/10/09 16:37:15;;;;;;;;;;;;;;;;;;7371526;19;902;-49
2022/10/09 16:39:44;;;;;;;;;;;;;;;;;;7370749;19;854;-47
2022/10/09 16:42:12;;;;;;;;;;;;;;;;;;7371962;19;882;-50
2022/10/09 16:44:40;;;;;;;;;;;;;;;;;;7368784;19;1329;-49
2022/10/09 16:47:08;;;;;;;;;;;;;;;;;;7370115;19;1845;-52
2022/10/09 16:49:36;;;;;;;;;;;;;;;;;;7370489;19;867;-49
2022/10/09 16:52:05;;;;;;;;;;;;;;;;;;7371047;19;826;-50
2022/10/09 16:54:33;;;;;;;;;;;;;;;;;;7369224;19;1341;-46
2022/10/09 16:57:03;;;;;;;;;;;;;;;;;;7371087;19;858;-47
2022/10/09 16:59:31;;;;;;;;;;;;;;;;;;7370369;19;786;-47
2022/10/09 17:02:01;;;;;;;;;;;;;;;;;;7371198;19;800;-48
2022/10/09 17:04:29;;;;;;;;;;;;;;;;;;7370500;19;1330;-47
2022/10/09 17:06:57;;;;;;;;;;;;;;;;;;7371058;19;1849;-46
2022/10/09 17:09:28;;;;;;;;;;;;;;;;;;7371870;19;885;-46
2022/10/09 17:11:56;;;;;;;;;;;;;;;;;;7372484;19;706;-47
2022/10/09 17:14:24;;;;;;;;;;;;;;;;;;7369982;19;1279;-46
2022/10/09 17:16:52;;;;;;;;;;;;;;;;;;7371832;19;836;-46